createdAt,value
2023-03-17T00:00:07.364Z,2.02
2023-03-17T00:01:07.350Z,2.00
2023-03-17T00:02:07.435Z,1.97
2023-03-17T00:03:07.348Z,1.95
2023-03-17T00:04:07.325Z,1.92
2023-03-17T00:05:07.324Z,1.92
2023-03-17T00:06:07.320Z,1.94
2023-03-17T00:07:07.291Z,1.91
2023-03-17T00:08:07.295Z,1.89
2023-03-17T00:09:07.270Z,1.81
2023-03-17T00:10:07.277Z,1.78
2023-03-17T00:11:07.267Z,1.74
2023-03-17T00:12:07.288Z,1.70
2023-03-17T00:13:07.254Z,1.67
2023-03-17T00:14:07.240Z,1.67
2023-03-17T00:15:07.216Z,1.60
2023-03-17T00:16:07.338Z,1.58
2023-03-17T00:17:07.204Z,1.55
2023-03-17T00:18:07.205Z,1.56
2023-03-17T00:19:07.177Z,1.56
2023-03-17T00:20:07.160Z,1.58
2023-03-17T00:21:07.152Z,1.55
2023-03-17T00:22:07.150Z,1.53
2023-03-17T00:23:07.142Z,1.55
2023-03-17T00:24:07.157Z,1.55
2023-03-17T00:25:07.150Z,1.53
2023-03-17T00:26:07.138Z,1.56
2023-03-17T00:27:07.102Z,1.55
2023-03-17T00:28:07.109Z,1.56
2023-03-17T00:29:07.080Z,1.59
2023-03-17T00:30:07.108Z,1.62
2023-03-17T00:31:07.102Z,1.59
2023-03-17T00:32:07.045Z,1.58
2023-03-17T00:33:07.046Z,1.55
2023-03-17T00:34:07.032Z,1.48
2023-03-17T00:35:07.018Z,1.48
2023-03-17T00:36:07.094Z,1.45
2023-03-17T00:37:06.989Z,1.44
2023-03-17T00:38:07.000Z,1.44
2023-03-17T00:39:06.972Z,1.44
2023-03-17T00:40:06.962Z,1.44
2023-03-17T00:41:06.968Z,1.42
2023-03-17T00:42:07.022Z,1.42
2023-03-17T00:43:06.924Z,1.45
2023-03-17T00:44:06.909Z,1.44
2023-03-17T00:45:06.900Z,1.42
2023-03-17T00:46:06.889Z,1.50
2023-03-17T00:47:06.912Z,1.58
2023-03-17T00:48:06.881Z,1.60
2023-03-17T00:49:06.860Z,1.67
2023-03-17T00:50:06.872Z,1.71
2023-03-17T00:51:06.848Z,1.76
2023-03-17T00:52:06.864Z,1.81
2023-03-17T00:53:06.841Z,1.87
2023-03-17T00:54:06.843Z,1.89
2023-03-17T00:55:06.834Z,1.89
2023-03-17T00:56:06.814Z,1.95
2023-03-17T00:57:06.796Z,1.88
2023-03-17T00:58:06.794Z,1.89
2023-03-17T00:59:06.752Z,1.85
2023-03-17T01:00:06.771Z,1.85
2023-03-17T01:01:06.786Z,1.78
2023-03-17T01:02:06.798Z,1.71
2023-03-17T01:03:06.756Z,1.66
2023-03-17T01:04:06.706Z,1.60
2023-03-17T01:05:07.104Z,1.58
2023-03-17T01:06:06.717Z,1.52
2023-03-17T01:07:06.688Z,1.53
2023-03-17T01:08:06.697Z,1.53
2023-03-17T01:09:06.696Z,1.59
2023-03-17T01:10:06.679Z,1.58
2023-03-17T01:11:06.651Z,1.59
2023-03-17T01:12:06.633Z,1.62
2023-03-17T01:13:06.623Z,1.60
2023-03-17T01:14:06.660Z,1.59
2023-03-17T01:15:06.613Z,1.56
2023-03-17T01:16:06.647Z,1.52
2023-03-17T01:17:06.605Z,1.48
2023-03-17T01:18:06.599Z,1.50
2023-03-17T01:19:06.576Z,1.48
2023-03-17T01:20:06.598Z,1.49
2023-03-17T01:21:06.557Z,1.52
2023-03-17T01:22:06.533Z,1.55
2023-03-17T01:23:06.513Z,1.59
2023-03-17T01:24:06.516Z,1.66
2023-03-17T01:25:07.070Z,1.70
2023-03-17T01:26:06.521Z,1.73
2023-03-17T01:27:06.478Z,1.74
2023-03-17T01:28:06.489Z,1.74
2023-03-17T01:29:06.528Z,1.76
2023-03-17T01:30:06.467Z,1.78
2023-03-17T01:31:06.499Z,1.76
2023-03-17T01:32:06.457Z,1.74
2023-03-17T01:33:06.458Z,1.70
2023-03-17T01:34:06.498Z,1.63
2023-03-17T01:35:06.421Z,1.58
2023-03-17T01:36:06.538Z,1.49
2023-03-17T01:37:06.390Z,1.45
2023-03-17T01:38:06.418Z,1.42
2023-03-17T01:39:06.369Z,1.41
2023-03-17T01:40:06.360Z,1.34
2023-03-17T01:41:06.337Z,1.34
2023-03-17T01:42:06.361Z,1.31
2023-03-17T01:43:06.334Z,1.26
2023-03-17T01:44:06.309Z,1.23
2023-03-17T01:45:06.318Z,1.23
2023-03-17T01:46:06.320Z,1.22
2023-03-17T01:47:06.792Z,1.19
2023-03-17T01:48:06.278Z,1.23
2023-03-17T01:49:06.295Z,1.17
2023-03-17T01:50:06.302Z,1.19
2023-03-17T01:51:06.261Z,1.20
2023-03-17T01:52:06.254Z,1.16
2023-03-17T01:53:06.265Z,1.14
2023-03-17T01:54:06.212Z,1.14
2023-03-17T01:55:06.204Z,1.14
2023-03-17T01:56:06.192Z,1.19
2023-03-17T01:57:06.176Z,1.16
2023-03-17T01:58:06.165Z,1.23
2023-03-17T01:59:06.429Z,1.23
2023-03-17T02:00:06.164Z,1.24
2023-03-17T02:01:06.177Z,1.24
2023-03-17T02:02:06.155Z,1.26
2023-03-17T02:03:06.135Z,1.26
2023-03-17T02:04:06.171Z,1.20
2023-03-17T02:05:06.173Z,1.20
2023-03-17T02:06:06.102Z,1.24
2023-03-17T02:07:06.089Z,1.26
2023-03-17T02:08:06.089Z,1.32
2023-03-17T02:09:06.072Z,1.31
2023-03-17T02:10:06.057Z,1.28
2023-03-17T02:11:06.134Z,1.28
2023-03-17T02:12:06.036Z,1.28
2023-03-17T02:13:06.037Z,1.31
2023-03-17T02:14:06.027Z,1.34
2023-03-17T02:15:06.021Z,1.32
2023-03-17T02:16:06.001Z,1.35
2023-03-17T02:17:06.030Z,1.32
2023-03-17T02:18:05.991Z,1.35
2023-03-17T02:19:05.963Z,1.38
2023-03-17T02:20:05.957Z,1.42
2023-03-17T02:21:05.942Z,1.44
2023-03-17T02:22:05.949Z,1.50
2023-03-17T02:23:05.957Z,1.52
2023-03-17T02:24:05.900Z,1.55
2023-03-17T02:25:05.900Z,1.59
2023-03-17T02:26:05.946Z,1.62
2023-03-17T02:27:05.901Z,1.60
2023-03-17T02:28:05.873Z,1.58
2023-03-17T02:29:05.931Z,1.53
2023-03-17T02:30:05.858Z,1.50
2023-03-17T02:31:05.901Z,1.42
2023-03-17T02:32:05.883Z,1.37
2023-03-17T02:33:05.944Z,1.30
2023-03-17T02:34:05.822Z,1.32
2023-03-17T02:35:05.829Z,1.31
2023-03-17T02:36:05.835Z,1.30
2023-03-17T02:37:05.826Z,1.30
2023-03-17T02:38:05.766Z,1.31
2023-03-17T02:39:05.754Z,1.34
2023-03-17T02:40:05.777Z,1.31
2023-03-17T02:41:05.773Z,1.37
2023-03-17T02:42:05.755Z,1.37
2023-03-17T02:43:05.776Z,1.38
2023-03-17T02:44:05.715Z,1.32
2023-03-17T02:45:05.719Z,1.24
2023-03-17T02:46:05.824Z,1.20
2023-03-17T02:47:05.721Z,1.13
2023-03-17T02:48:05.683Z,1.10
2023-03-17T02:49:05.675Z,1.04
2023-03-17T02:50:05.694Z,1.02
2023-03-17T02:51:05.655Z,1.02
2023-03-17T02:52:05.653Z,0.99
2023-03-17T02:53:05.632Z,0.98
2023-03-17T02:54:05.611Z,0.99
2023-03-17T02:55:05.614Z,1.02
2023-03-17T02:56:05.655Z,1.08
2023-03-17T02:57:05.618Z,1.13
2023-03-17T02:58:05.575Z,1.19
2023-03-17T02:59:05.584Z,1.24
2023-03-17T03:00:05.574Z,1.28
2023-03-17T03:01:05.656Z,1.34
2023-03-17T03:02:05.576Z,1.38
2023-03-17T03:03:05.544Z,1.45
2023-03-17T03:04:05.521Z,1.45
2023-03-17T03:05:05.517Z,1.50
2023-03-17T03:06:05.485Z,1.44
2023-03-17T03:07:05.496Z,1.30
2023-03-17T03:08:05.490Z,1.22
2023-03-17T03:09:05.463Z,1.12
2023-03-17T03:10:05.526Z,1.05
2023-03-17T03:11:05.463Z,1.02
2023-03-17T03:12:05.441Z,0.99
2023-03-17T03:13:05.461Z,0.98
2023-03-17T03:14:05.421Z,0.99
2023-03-17T03:15:05.509Z,1.05
2023-03-17T03:16:05.447Z,1.10
2023-03-17T03:17:05.415Z,1.16
2023-03-17T03:18:05.385Z,1.20
2023-03-17T03:19:05.395Z,1.23
2023-03-17T03:20:05.380Z,1.20
2023-03-17T03:21:05.344Z,1.20
2023-03-17T03:22:05.352Z,1.13
2023-03-17T03:23:05.325Z,1.08
2023-03-17T03:24:05.338Z,1.02
2023-03-17T03:25:05.339Z,1.04
2023-03-17T03:26:05.336Z,1.02
2023-03-17T03:27:05.322Z,1.04
2023-03-17T03:28:05.294Z,0.99
2023-03-17T03:29:05.288Z,0.99
2023-03-17T03:30:05.500Z,0.99
2023-03-17T03:31:05.261Z,0.99
2023-03-17T03:32:05.246Z,0.98
2023-03-17T03:33:05.316Z,1.02
2023-03-17T03:34:05.221Z,1.06
2023-03-17T03:35:05.307Z,1.10
2023-03-17T03:36:05.301Z,1.13
2023-03-17T03:37:05.184Z,1.13
2023-03-17T03:38:05.184Z,1.12
2023-03-17T03:39:05.183Z,1.05
2023-03-17T03:40:05.179Z,1.02
2023-03-17T03:41:05.167Z,1.04
2023-03-17T03:42:05.174Z,1.02
2023-03-17T03:43:19.880Z,1.02
2023-03-17T03:44:05.144Z,1.04
2023-03-17T03:45:05.152Z,1.06
2023-03-17T03:46:05.129Z,1.01
2023-03-17T03:47:05.089Z,1.06
2023-03-17T03:48:05.096Z,1.12
2023-03-17T03:49:05.050Z,1.13
2023-03-17T03:50:05.062Z,1.12
2023-03-17T03:51:05.039Z,1.12
2023-03-17T03:52:05.045Z,1.13
2023-03-17T03:53:05.020Z,1.13
2023-03-17T03:54:05.263Z,1.12
2023-03-17T03:55:04.996Z,1.08
2023-03-17T03:56:04.987Z,1.06
2023-03-17T03:57:04.978Z,1.08
2023-03-17T03:58:04.974Z,1.06
2023-03-17T03:59:04.962Z,1.05
2023-03-17T04:00:04.988Z,1.08
2023-03-17T04:01:04.929Z,1.04
2023-03-17T04:02:04.964Z,1.06
2023-03-17T04:03:05.014Z,1.10
2023-03-17T04:04:04.937Z,1.08
2023-03-17T04:05:04.960Z,1.14
2023-03-17T04:06:04.944Z,1.17
2023-03-17T04:07:04.909Z,1.23
2023-03-17T04:08:04.896Z,1.26
2023-03-17T04:09:04.871Z,1.31
2023-03-17T04:10:04.855Z,1.35
2023-03-17T04:11:04.847Z,1.38
2023-03-17T04:12:04.855Z,1.38
2023-03-17T04:13:04.816Z,1.38
2023-03-17T04:14:04.811Z,1.32
2023-03-17T04:15:04.796Z,1.32
2023-03-17T04:16:04.840Z,1.31
2023-03-17T04:17:04.787Z,1.26
2023-03-17T04:18:04.786Z,1.23
2023-03-17T04:19:04.799Z,1.20
2023-03-17T04:20:04.807Z,1.20
2023-03-17T04:21:04.739Z,1.22
2023-03-17T04:22:04.733Z,1.24
2023-03-17T04:23:04.711Z,1.23
2023-03-17T04:24:04.713Z,1.23
2023-03-17T04:25:04.714Z,1.23
2023-03-17T04:26:04.813Z,1.23
2023-03-17T04:27:06.133Z,1.23
2023-03-17T04:28:04.682Z,1.26
2023-03-17T04:29:04.688Z,1.31
2023-03-17T04:30:04.658Z,1.35
2023-03-17T04:31:04.880Z,1.38
2023-03-17T04:32:04.639Z,1.41
2023-03-17T04:33:04.655Z,1.44
2023-03-17T04:34:04.625Z,1.48
2023-03-17T04:35:04.611Z,1.53
2023-03-17T04:36:04.614Z,1.53
2023-03-17T04:37:04.599Z,1.53
2023-03-17T04:38:04.578Z,1.56
2023-03-17T04:39:04.555Z,1.56
2023-03-17T04:40:04.560Z,1.59
2023-03-17T04:41:04.566Z,1.58
2023-03-17T04:42:04.560Z,1.58
2023-03-17T04:43:04.569Z,1.58
2023-03-17T04:44:04.563Z,1.50
2023-03-17T04:45:04.500Z,1.48
2023-03-17T04:46:04.541Z,1.40
2023-03-17T04:47:04.505Z,1.35
2023-03-17T04:48:04.513Z,1.28
2023-03-17T04:49:04.492Z,1.28
2023-03-17T04:50:04.478Z,1.22
2023-03-17T04:51:04.436Z,1.24
2023-03-17T04:52:04.429Z,1.20
2023-03-17T04:53:04.427Z,1.20
2023-03-17T04:54:04.417Z,1.20
2023-03-17T04:55:04.420Z,1.20
2023-03-17T04:56:04.398Z,1.17
2023-03-17T04:57:04.380Z,1.22
2023-03-17T04:58:04.385Z,1.22
2023-03-17T04:59:04.366Z,1.22
2023-03-17T05:00:04.352Z,1.23
2023-03-17T05:01:04.417Z,1.24
2023-03-17T05:02:04.374Z,1.24
2023-03-17T05:03:07.107Z,1.26
2023-03-17T05:04:04.341Z,1.24
2023-03-17T05:05:04.298Z,1.22
2023-03-17T05:06:04.291Z,1.20
2023-03-17T05:07:04.296Z,1.20
2023-03-17T05:08:04.272Z,1.20
2023-03-17T05:09:04.267Z,1.22
2023-03-17T05:10:04.283Z,1.20
2023-03-17T05:11:04.236Z,1.23
2023-03-17T05:12:04.233Z,1.24
2023-03-17T05:13:04.215Z,1.22
2023-03-17T05:14:04.268Z,1.26
2023-03-17T05:15:04.233Z,1.26
2023-03-17T05:16:04.186Z,1.28
2023-03-17T05:17:04.187Z,1.30
2023-03-17T05:18:05.077Z,1.26
2023-03-17T05:19:04.154Z,1.26
2023-03-17T05:20:04.136Z,1.26
2023-03-17T05:21:04.120Z,1.24
2023-03-17T05:22:04.131Z,1.30
2023-03-17T05:23:04.117Z,1.31
2023-03-17T05:24:04.132Z,1.32
2023-03-17T05:25:04.084Z,1.31
2023-03-17T05:26:04.099Z,1.31
2023-03-17T05:27:04.064Z,1.31
2023-03-17T05:28:04.057Z,1.31
2023-03-17T05:29:04.080Z,1.28
2023-03-17T05:30:04.045Z,1.28
2023-03-17T05:31:04.124Z,1.30
2023-03-17T05:32:04.017Z,1.28
2023-03-17T05:33:04.156Z,1.30
2023-03-17T05:34:04.000Z,1.31
2023-03-17T05:35:04.039Z,1.32
2023-03-17T05:36:04.052Z,1.38
2023-03-17T05:37:03.968Z,1.41
2023-03-17T05:38:03.949Z,1.44
2023-03-17T05:39:03.942Z,1.52
2023-03-17T05:40:03.955Z,1.53
2023-03-17T05:41:03.910Z,1.58
2023-03-17T05:42:03.921Z,1.56
2023-03-17T05:43:03.905Z,1.60
2023-03-17T05:44:03.901Z,1.59
2023-03-17T05:45:03.888Z,1.59
2023-03-17T05:46:04.016Z,1.58
2023-03-17T05:47:03.858Z,1.55
2023-03-17T05:48:03.871Z,1.55
2023-03-17T05:49:03.868Z,1.50
2023-03-17T05:50:03.837Z,1.55
2023-03-17T05:51:03.843Z,1.50
2023-03-17T05:52:03.822Z,1.50
2023-03-17T05:53:03.819Z,1.50
2023-03-17T05:54:03.792Z,1.49
2023-03-17T05:55:03.768Z,1.49
2023-03-17T05:56:03.822Z,1.49
2023-03-17T05:57:03.771Z,1.44
2023-03-17T05:58:03.752Z,1.45
2023-03-17T05:59:03.749Z,1.41
2023-03-17T06:00:03.721Z,1.41
2023-03-17T06:01:03.742Z,1.44
2023-03-17T06:02:03.827Z,1.48
2023-03-17T06:03:03.714Z,1.50
2023-03-17T06:04:03.698Z,1.52
2023-03-17T06:05:03.714Z,1.55
2023-03-17T06:06:03.679Z,1.60
2023-03-17T06:07:03.656Z,1.62
2023-03-17T06:08:03.665Z,1.66
2023-03-17T06:09:03.652Z,1.68
2023-03-17T06:10:03.628Z,1.71
2023-03-17T06:11:03.654Z,1.74
2023-03-17T06:12:03.606Z,1.78
2023-03-17T06:13:04.173Z,1.81
2023-03-17T06:14:03.571Z,1.81
2023-03-17T06:15:03.598Z,1.80
2023-03-17T06:16:03.582Z,1.77
2023-03-17T06:17:03.540Z,1.74
2023-03-17T06:18:03.555Z,1.74
2023-03-17T06:19:03.581Z,1.76
2023-03-17T06:20:03.549Z,1.80
2023-03-17T06:21:03.527Z,1.81
2023-03-17T06:22:03.495Z,1.87
2023-03-17T06:23:05.635Z,1.92
2023-03-17T06:24:03.499Z,2.02
2023-03-17T06:25:03.528Z,2.04
2023-03-17T06:26:03.456Z,2.06
2023-03-17T06:27:03.500Z,2.07
2023-03-17T06:28:03.438Z,2.07
2023-03-17T06:29:03.537Z,2.08
2023-03-17T06:30:03.462Z,2.07
2023-03-17T06:31:06.043Z,2.11
2023-03-17T06:32:18.923Z,2.13
2023-03-17T06:33:03.505Z,2.14
2023-03-17T06:34:03.369Z,2.13
2023-03-17T06:35:03.397Z,2.15
2023-03-17T06:36:03.594Z,2.15
2023-03-17T06:37:03.344Z,2.15
2023-03-17T06:38:03.318Z,2.20
2023-03-17T06:39:03.325Z,2.25
2023-03-17T06:40:03.310Z,2.29
2023-03-17T06:41:03.327Z,2.35
2023-03-17T06:42:05.329Z,2.43
2023-03-17T06:43:03.296Z,2.47
2023-03-17T06:44:03.295Z,2.54
2023-03-17T06:45:03.272Z,2.61
2023-03-17T06:46:03.298Z,2.65
2023-03-17T06:47:03.278Z,2.67
2023-03-17T06:48:03.245Z,2.71
2023-03-17T06:49:03.238Z,2.77
2023-03-17T06:50:03.206Z,2.82
2023-03-17T06:51:03.222Z,2.86
2023-03-17T06:52:03.219Z,2.89
2023-03-17T06:53:03.185Z,2.90
2023-03-17T06:54:03.170Z,2.93
2023-03-17T06:55:03.176Z,2.95
2023-03-17T06:56:03.135Z,3.03
2023-03-17T06:57:03.132Z,3.03
2023-03-17T06:58:03.172Z,3.08
2023-03-17T06:59:03.126Z,3.08
2023-03-17T07:00:03.124Z,3.10
2023-03-17T07:01:03.113Z,3.14
2023-03-17T07:02:03.168Z,3.14
2023-03-17T07:03:03.119Z,3.19
2023-03-17T07:04:03.064Z,3.22
2023-03-17T07:05:03.189Z,3.28
2023-03-17T07:06:03.080Z,3.31
2023-03-17T07:07:03.040Z,3.34
2023-03-17T07:08:03.037Z,3.40
2023-03-17T07:09:03.049Z,3.40
2023-03-17T07:10:03.012Z,3.41
2023-03-17T07:11:03.007Z,3.44
2023-03-17T07:12:03.000Z,3.48
2023-03-17T07:13:03.030Z,3.48
2023-03-17T07:14:02.955Z,3.47
2023-03-17T07:15:03.086Z,3.50
2023-03-17T07:16:03.040Z,3.51
2023-03-17T07:17:02.930Z,3.51
2023-03-17T07:18:02.914Z,3.55
2023-03-17T07:19:02.922Z,3.53
2023-03-17T07:20:02.897Z,3.55
2023-03-17T07:21:02.962Z,3.56
2023-03-17T07:22:02.900Z,3.59
2023-03-17T07:23:02.879Z,3.59
2023-03-17T07:24:02.868Z,3.58
2023-03-17T07:25:02.860Z,3.58
2023-03-17T07:26:02.840Z,3.58
2023-03-17T07:27:02.884Z,3.56
2023-03-17T07:28:02.826Z,3.58
2023-03-17T07:29:02.833Z,3.59
2023-03-17T07:30:02.791Z,3.59
2023-03-17T07:31:02.829Z,3.62
2023-03-17T07:32:02.787Z,3.62
2023-03-17T07:33:02.863Z,3.65
2023-03-17T07:34:02.754Z,3.65
2023-03-17T07:35:02.751Z,3.69
2023-03-17T07:36:02.763Z,3.73
2023-03-17T07:37:02.760Z,3.77
2023-03-17T07:38:02.722Z,3.80
2023-03-17T07:39:02.966Z,3.84
2023-03-17T07:40:02.690Z,3.87
2023-03-17T07:41:02.705Z,3.92
2023-03-17T07:42:02.677Z,3.96
2023-03-17T07:43:02.668Z,3.99
2023-03-17T07:44:02.665Z,4.05
2023-03-17T07:45:02.699Z,4.06
2023-03-17T07:46:05.116Z,4.12
2023-03-17T07:47:02.657Z,4.16
2023-03-17T07:48:02.625Z,4.22
2023-03-17T07:49:02.610Z,4.26
2023-03-17T07:50:02.628Z,4.31
2023-03-17T07:51:02.648Z,4.35
2023-03-17T07:52:02.581Z,4.40
2023-03-17T07:53:02.563Z,4.45
2023-03-17T07:54:02.563Z,4.49
2023-03-17T07:55:02.585Z,4.53
2023-03-17T07:56:02.542Z,4.58
2023-03-17T07:57:02.541Z,4.66
2023-03-17T07:58:02.621Z,4.71
2023-03-17T07:59:02.495Z,4.75
2023-03-17T08:00:02.521Z,4.82
2023-03-17T08:01:02.527Z,4.89
2023-03-17T08:02:02.544Z,4.96
2023-03-17T08:03:10.331Z,5.02
2023-03-17T08:04:02.555Z,5.07
2023-03-17T08:05:02.479Z,5.14
2023-03-17T08:06:02.474Z,5.18
2023-03-17T08:07:02.452Z,5.28
2023-03-17T08:08:02.449Z,5.32
2023-03-17T08:09:02.426Z,5.36
2023-03-17T08:10:02.430Z,5.44
2023-03-17T08:11:02.385Z,5.47
2023-03-17T08:12:02.393Z,5.51
2023-03-17T08:13:02.398Z,5.59
2023-03-17T08:14:02.347Z,5.64
2023-03-17T08:15:02.349Z,5.69
2023-03-17T08:16:02.331Z,5.75
2023-03-17T08:17:02.419Z,5.82
2023-03-17T08:18:02.346Z,5.84
2023-03-17T08:19:02.300Z,5.87
2023-03-17T08:20:02.315Z,5.90
2023-03-17T08:21:02.301Z,5.91
2023-03-17T08:22:02.297Z,5.97
2023-03-17T08:23:02.256Z,5.99
2023-03-17T08:24:02.286Z,6.02
2023-03-17T08:25:02.259Z,6.05
2023-03-17T08:26:02.226Z,6.08
2023-03-17T08:27:02.249Z,6.14
2023-03-17T08:28:02.258Z,6.17
2023-03-17T08:29:02.204Z,6.24
2023-03-17T08:30:02.209Z,6.30
2023-03-17T08:31:02.238Z,6.33
2023-03-17T08:32:02.223Z,6.35
2023-03-17T08:33:02.274Z,6.38
2023-03-17T08:34:02.152Z,6.41
2023-03-17T08:35:02.144Z,6.45
2023-03-17T08:36:02.172Z,6.48
2023-03-17T08:37:02.112Z,6.46
2023-03-17T08:38:02.132Z,6.45
2023-03-17T08:39:02.107Z,6.46
2023-03-17T08:40:02.102Z,6.52
2023-03-17T08:41:02.093Z,6.52
2023-03-17T08:42:02.062Z,6.51
2023-03-17T08:43:02.046Z,6.54
2023-03-17T08:44:02.120Z,6.57
2023-03-17T08:45:02.055Z,6.62
2023-03-17T08:46:02.006Z,6.67
2023-03-17T08:47:02.068Z,6.72
2023-03-17T08:48:01.997Z,6.79
2023-03-17T08:49:02.057Z,6.82
2023-03-17T08:50:02.000Z,6.89
2023-03-17T08:51:01.987Z,6.95
2023-03-17T08:52:01.990Z,6.97
2023-03-17T08:53:01.971Z,7.03
2023-03-17T08:54:01.968Z,7.10
2023-03-17T08:55:01.993Z,7.14
2023-03-17T08:56:01.947Z,7.15
2023-03-17T08:57:02.036Z,7.21
2023-03-17T08:58:01.953Z,7.28
2023-03-17T08:59:01.896Z,7.25
2023-03-17T09:00:01.870Z,7.32
2023-03-17T09:01:01.961Z,7.33
2023-03-17T09:02:01.855Z,7.36
2023-03-17T09:03:01.902Z,7.38
2023-03-17T09:04:01.836Z,7.36
2023-03-17T09:05:01.841Z,7.36
2023-03-17T09:06:01.831Z,7.35
2023-03-17T09:07:04.110Z,7.38
2023-03-17T09:08:01.849Z,7.38
2023-03-17T09:09:01.800Z,7.42
2023-03-17T09:10:01.798Z,7.50
2023-03-17T09:11:01.768Z,7.56
2023-03-17T09:12:01.790Z,7.61
2023-03-17T09:13:01.746Z,7.69
2023-03-17T09:14:01.731Z,7.73
2023-03-17T09:15:01.764Z,7.80
2023-03-17T09:16:01.736Z,7.87
2023-03-17T09:17:02.527Z,7.90
2023-03-17T09:18:01.737Z,7.94
2023-03-17T09:19:01.747Z,7.97
2023-03-17T09:20:01.683Z,8.00
2023-03-17T09:21:01.678Z,8.06
2023-03-17T09:22:01.668Z,8.13
2023-03-17T09:23:01.641Z,8.18
2023-03-17T09:24:02.696Z,8.23
2023-03-17T09:25:01.634Z,8.28
2023-03-17T09:26:01.656Z,8.31
2023-03-17T09:27:01.601Z,8.36
2023-03-17T09:28:01.610Z,8.44
2023-03-17T09:29:03.770Z,8.49
2023-03-17T09:30:01.564Z,8.55
2023-03-17T09:31:01.658Z,8.56
2023-03-17T09:32:01.536Z,8.56
2023-03-17T09:33:01.629Z,8.60
2023-03-17T09:34:01.526Z,8.61
2023-03-17T09:35:01.553Z,8.60
2023-03-17T09:36:01.563Z,8.60
2023-03-17T09:37:01.504Z,8.60
2023-03-17T09:38:01.490Z,8.58
2023-03-17T09:39:01.480Z,8.55
2023-03-17T09:40:01.474Z,8.52
2023-03-17T09:41:01.464Z,8.53
2023-03-17T09:42:01.436Z,8.55
2023-03-17T09:43:01.460Z,8.55
2023-03-17T09:44:01.471Z,8.58
2023-03-17T09:45:01.408Z,8.58
2023-03-17T09:46:01.398Z,8.60
2023-03-17T09:47:01.410Z,8.63
2023-03-17T09:48:01.367Z,8.67
2023-03-17T09:49:01.478Z,8.74
2023-03-17T09:50:01.379Z,8.79
2023-03-17T09:51:01.364Z,8.85
2023-03-17T09:52:01.334Z,8.91
2023-03-17T09:53:03.861Z,8.92
2023-03-17T09:54:01.371Z,8.84
2023-03-17T09:55:01.308Z,8.81
2023-03-17T09:56:01.297Z,8.82
2023-03-17T09:57:01.287Z,8.91
2023-03-17T09:58:01.288Z,8.91
2023-03-17T09:59:01.278Z,8.95
2023-03-17T10:00:01.300Z,8.92
2023-03-17T10:01:01.252Z,8.89
2023-03-17T10:02:01.296Z,8.88
2023-03-17T10:03:01.227Z,8.89
2023-03-17T10:04:01.220Z,8.88
2023-03-17T10:05:01.323Z,8.94
2023-03-17T10:06:01.196Z,9.00
2023-03-17T10:07:01.185Z,9.03
2023-03-17T10:08:01.156Z,9.04
2023-03-17T10:09:01.168Z,9.10
2023-03-17T10:10:01.164Z,9.14
2023-03-17T10:11:01.182Z,9.19
2023-03-17T10:12:01.143Z,9.26
2023-03-17T10:13:01.142Z,9.31
2023-03-17T10:14:01.129Z,9.39
2023-03-17T10:15:01.111Z,9.47
2023-03-17T10:16:01.173Z,9.55
2023-03-17T10:17:01.088Z,9.61
2023-03-17T10:18:01.074Z,9.64
2023-03-17T10:19:01.062Z,9.65
2023-03-17T10:20:01.052Z,9.69
2023-03-17T10:21:01.046Z,9.74
2023-03-17T10:22:01.057Z,9.74
2023-03-17T10:23:01.001Z,9.76
2023-03-17T10:24:01.005Z,9.80
2023-03-17T10:25:03.466Z,9.86
2023-03-17T10:26:00.994Z,9.87
2023-03-17T10:27:00.975Z,9.89
2023-03-17T10:28:00.968Z,9.95
2023-03-17T10:29:01.014Z,9.99
2023-03-17T10:30:00.988Z,10.05
2023-03-17T10:31:00.937Z,10.07
2023-03-17T10:32:01.016Z,10.12
2023-03-17T10:33:00.988Z,10.16
2023-03-17T10:34:00.941Z,10.23
2023-03-17T10:35:00.954Z,10.23
2023-03-17T10:36:00.967Z,10.30
2023-03-17T10:37:00.879Z,10.31
2023-03-17T10:38:13.833Z,10.34
2023-03-17T10:39:00.853Z,10.37
2023-03-17T10:40:00.865Z,10.41
2023-03-17T10:41:00.845Z,10.42
2023-03-17T10:42:00.831Z,10.44
2023-03-17T10:43:00.815Z,10.44
2023-03-17T10:44:00.829Z,10.46
2023-03-17T10:45:00.816Z,10.49
2023-03-17T10:46:00.805Z,10.51
2023-03-17T10:47:01.082Z,10.51
2023-03-17T10:48:00.775Z,10.53
2023-03-17T10:49:00.754Z,10.53
2023-03-17T10:50:00.747Z,10.49
2023-03-17T10:51:00.762Z,10.42
2023-03-17T10:52:00.726Z,10.42
2023-03-17T10:53:00.804Z,10.46
2023-03-17T10:54:00.698Z,10.49
2023-03-17T10:55:00.699Z,10.51
2023-03-17T10:56:00.682Z,10.49
2023-03-17T10:57:00.674Z,10.51
2023-03-17T10:58:00.652Z,10.54
2023-03-17T10:59:00.704Z,10.54
2023-03-17T11:00:00.641Z,10.51
2023-03-17T11:01:00.671Z,10.46
2023-03-17T11:02:00.619Z,10.44
2023-03-17T11:03:00.600Z,10.41
2023-03-17T11:04:00.643Z,10.44
2023-03-17T11:05:00.579Z,10.40
2023-03-17T11:06:00.590Z,10.34
2023-03-17T11:07:00.572Z,10.33
2023-03-17T11:08:00.574Z,10.34
2023-03-17T11:09:00.546Z,10.40
2023-03-17T11:10:00.561Z,10.40
2023-03-17T11:11:00.526Z,10.42
2023-03-17T11:12:00.519Z,10.44
2023-03-17T11:13:00.537Z,10.46
2023-03-17T11:14:00.498Z,10.48
2023-03-17T11:15:00.503Z,10.46
2023-03-17T11:16:00.495Z,10.48
2023-03-17T11:17:00.455Z,10.51
2023-03-17T11:18:00.467Z,10.51
2023-03-17T11:19:00.449Z,10.56
2023-03-17T11:20:00.507Z,10.56
2023-03-17T11:21:00.419Z,10.57
2023-03-17T11:22:00.416Z,10.57
2023-03-17T11:23:00.402Z,10.60
2023-03-17T11:24:00.390Z,10.59
2023-03-17T11:25:00.384Z,10.61
2023-03-17T11:26:00.418Z,10.64
2023-03-17T11:27:00.369Z,10.69
2023-03-17T11:28:00.348Z,10.74
2023-03-17T11:29:00.344Z,10.78
2023-03-17T11:30:00.349Z,10.79
2023-03-17T11:31:00.330Z,10.81
2023-03-17T11:32:00.505Z,10.87
2023-03-17T11:33:00.390Z,10.92
2023-03-17T11:34:00.290Z,10.87
2023-03-17T11:35:00.276Z,10.92
2023-03-17T11:36:00.342Z,10.93
2023-03-17T11:37:00.283Z,10.94
2023-03-17T11:38:00.257Z,10.97
2023-03-17T11:39:00.222Z,11.04
2023-03-17T11:40:00.223Z,11.07
2023-03-17T11:41:00.226Z,11.07
2023-03-17T11:42:00.195Z,11.11
2023-03-17T11:43:00.226Z,11.17
2023-03-17T11:44:00.182Z,11.22
2023-03-17T11:45:00.176Z,11.27
2023-03-17T11:46:00.264Z,11.29
2023-03-17T11:47:00.184Z,11.26
2023-03-17T11:48:01.082Z,11.32
2023-03-17T11:49:00.151Z,11.36
2023-03-17T11:50:00.211Z,11.37
2023-03-17T11:51:00.112Z,11.41
2023-03-17T11:52:00.119Z,11.44
2023-03-17T11:53:00.109Z,11.48
2023-03-17T11:54:00.102Z,11.51
2023-03-17T11:55:00.266Z,11.57
2023-03-17T11:56:00.079Z,11.62
2023-03-17T11:57:00.119Z,11.68
2023-03-17T11:58:00.061Z,11.73
2023-03-17T11:59:00.041Z,11.78
2023-03-17T12:00:00.042Z,11.81
2023-03-17T12:01:00.012Z,11.88
2023-03-17T12:01:59.998Z,11.94
2023-03-17T12:02:59.981Z,11.97
2023-03-17T12:04:00.115Z,12.00
2023-03-17T12:04:59.950Z,12.07
2023-03-17T12:05:59.952Z,12.12
2023-03-17T12:06:59.946Z,12.17
2023-03-17T12:07:59.932Z,12.20
2023-03-17T12:08:59.969Z,12.25
2023-03-17T12:09:59.955Z,12.29
2023-03-17T12:10:59.899Z,12.35
2023-03-17T12:11:59.927Z,12.37
2023-03-17T12:12:59.899Z,12.40
2023-03-17T12:13:59.882Z,12.45
2023-03-17T12:14:59.897Z,12.49
2023-03-17T12:16:00.006Z,12.47
2023-03-17T12:16:59.852Z,12.53
2023-03-17T12:17:59.831Z,12.55
2023-03-17T12:18:59.805Z,12.60
2023-03-17T12:19:59.813Z,12.65
2023-03-17T12:20:59.821Z,12.73
2023-03-17T12:21:59.807Z,12.78
2023-03-17T12:22:59.780Z,12.80
2023-03-17T12:23:59.775Z,12.85
2023-03-17T12:24:59.754Z,12.86
2023-03-17T12:25:59.979Z,12.90
2023-03-17T12:26:59.725Z,12.91
2023-03-17T12:27:59.719Z,12.95
2023-03-17T12:28:59.714Z,13.03
2023-03-17T12:29:59.701Z,13.08
2023-03-17T12:30:59.737Z,13.12
2023-03-17T12:31:59.701Z,13.13
2023-03-17T12:32:59.690Z,13.18
2023-03-17T12:33:59.781Z,13.23
2023-03-17T12:34:59.648Z,13.31
2023-03-17T12:35:59.654Z,13.35
2023-03-17T12:36:59.664Z,13.41
2023-03-17T12:37:59.629Z,13.47
2023-03-17T12:38:59.616Z,13.52
2023-03-17T12:39:59.610Z,13.54
2023-03-17T12:40:59.591Z,13.62
2023-03-17T12:41:59.587Z,13.68
2023-03-17T12:42:59.584Z,13.71
2023-03-17T12:43:59.544Z,13.70
2023-03-17T12:44:59.534Z,13.68
2023-03-17T12:45:59.558Z,13.68
2023-03-17T12:46:59.506Z,13.70
2023-03-17T12:47:59.506Z,13.70
2023-03-17T12:48:59.532Z,13.70
2023-03-17T12:49:59.509Z,13.70
2023-03-17T12:50:59.490Z,13.72
2023-03-17T12:51:59.473Z,13.74
2023-03-17T12:52:59.467Z,13.75
2023-03-17T12:53:59.448Z,13.79
2023-03-17T12:54:59.448Z,13.81
2023-03-17T12:55:59.433Z,13.81
2023-03-17T12:56:59.399Z,13.85
2023-03-17T12:57:59.426Z,13.86
2023-03-17T12:58:59.396Z,13.87
2023-03-17T12:59:59.398Z,13.86
2023-03-17T13:00:59.418Z,13.85
2023-03-17T13:01:59.514Z,13.83
2023-03-17T13:02:59.393Z,13.83
2023-03-17T13:03:59.363Z,13.83
2023-03-17T13:04:59.347Z,13.83
2023-03-17T13:05:59.327Z,13.85
2023-03-17T13:06:59.307Z,13.86
2023-03-17T13:07:59.310Z,13.89
2023-03-17T13:08:59.290Z,13.96
2023-03-17T13:09:59.277Z,14.00
2023-03-17T13:10:59.264Z,14.07
2023-03-17T13:11:59.301Z,14.12
2023-03-17T13:12:59.274Z,14.18